createdAt,value
2017-04-11T00:00:27.036Z,20.91
2017-04-11T00:01:36.953Z,20.87
2017-04-11T00:02:47.195Z,20.88
2017-04-11T00:03:57.426Z,20.92
2017-04-11T00:05:07.654Z,20.91
2017-04-11T00:06:17.295Z,20.84
2017-04-11T00:07:27.212Z,20.88
2017-04-11T00:08:37.130Z,20.88
2017-04-11T00:09:47.363Z,20.77
2017-04-11T00:10:57.598Z,20.76
2017-04-11T00:12:07.833Z,20.94
2017-04-11T00:13:17.464Z,20.82
2017-04-11T00:14:27.696Z,20.87
2017-04-11T00:15:37.612Z,20.79
2017-04-11T00:16:47.834Z,20.87
2017-04-11T00:17:58.065Z,20.85
2017-04-11T00:19:07.985Z,20.85
2017-04-11T00:20:17.902Z,20.89
2017-04-11T00:21:28.139Z,20.76
2017-04-11T00:22:38.071Z,20.88
2017-04-11T00:23:48.299Z,20.87
2017-04-11T00:24:58.213Z,20.76
2017-04-11T00:26:08.126Z,20.84
2017-04-11T00:27:18.042Z,20.88
2017-04-11T00:28:28.268Z,20.79
2017-04-11T00:29:38.491Z,20.76
2017-04-11T00:30:48.398Z,20.87
2017-04-11T00:31:58.624Z,20.79
2017-04-11T00:33:08.229Z,20.77
2017-04-11T00:34:18.144Z,20.85
2017-04-11T00:35:28.370Z,20.76
2017-04-11T00:36:38.288Z,20.88
2017-04-11T00:37:48.566Z,20.8
2017-04-11T00:38:58.490Z,20.76
2017-04-11T00:40:08.723Z,20.76
2017-04-11T00:41:18.968Z,20.84
2017-04-11T00:42:28.580Z,20.8
2017-04-11T00:43:38.497Z,20.77
2017-04-11T00:44:48.725Z,20.82
2017-04-11T00:45:58.950Z,20.84
2017-04-11T00:47:09.182Z,20.85
2017-04-11T00:48:19.428Z,20.8
2017-04-11T00:49:29.660Z,20.82
2017-04-11T00:50:39.579Z,20.87
2017-04-11T00:51:49.176Z,20.84
2017-04-11T00:52:59.091Z,20.84
2017-04-11T00:54:09.330Z,20.77
2017-04-11T00:55:19.558Z,20.85
2017-04-11T00:56:29.787Z,20.8
2017-04-11T00:57:40.009Z,20.82
2017-04-11T00:58:49.937Z,20.79
2017-04-11T00:59:59.860Z,20.8
2017-04-11T01:01:10.096Z,20.77
2017-04-11T01:02:20.014Z,20.85
2017-04-11T01:03:29.336Z,20.8
2017-04-11T01:04:39.248Z,20.77
2017-04-11T01:05:49.161Z,20.8
2017-04-11T01:06:59.079Z,20.8
2017-04-11T01:08:08.385Z,20.84
2017-04-11T01:09:18.305Z,20.72
2017-04-11T01:10:28.228Z,20.73
2017-04-11T01:11:38.470Z,20.84
2017-04-11T01:12:48.075Z,20.77
2017-04-11T01:13:57.990Z,20.85
2017-04-11T01:15:08.226Z,20.82
2017-04-11T01:16:17.833Z,20.8
2017-04-11T01:17:28.056Z,20.74
2017-04-11T01:18:38.293Z,20.82
2017-04-11T01:19:48.520Z,20.85
2017-04-11T01:20:58.435Z,20.76
2017-04-11T01:22:08.662Z,20.76
2017-04-11T01:23:18.894Z,20.76
2017-04-11T01:24:29.125Z,20.74
2017-04-11T01:25:39.047Z,20.76
2017-04-11T01:26:48.651Z,20.79
2017-04-11T01:27:58.882Z,20.79
2017-04-11T01:29:08.799Z,20.72
2017-04-11T01:30:19.033Z,20.73
2017-04-11T01:31:29.256Z,20.74
2017-04-11T01:32:39.176Z,20.74
2017-04-11T01:33:48.777Z,20.73
2017-04-11T01:34:58.697Z,20.74
2017-04-11T01:36:08.936Z,20.77
2017-04-11T01:37:19.164Z,20.72
2017-04-11T01:38:29.394Z,20.72
2017-04-11T01:39:38.998Z,20.76
2017-04-11T01:40:48.926Z,20.74
2017-04-11T01:41:59.150Z,20.76
2017-04-11T01:43:09.385Z,20.74
2017-04-11T01:44:19.634Z,20.73
2017-04-11T01:45:29.894Z,20.72
2017-04-11T01:46:39.497Z,20.79
2017-04-11T01:47:48.804Z,20.77
2017-04-11T01:48:59.026Z,20.73
2017-04-11T01:50:09.260Z,20.76
2017-04-11T01:51:19.493Z,20.8
2017-04-11T01:52:29.399Z,20.79
2017-04-11T01:53:39.646Z,20.74
2017-04-11T01:54:49.575Z,20.76
2017-04-11T01:55:59.804Z,20.7
2017-04-11T01:57:09.422Z,20.79
2017-04-11T01:58:19.689Z,20.85
2017-04-11T01:59:29.921Z,20.66
2017-04-11T02:00:39.841Z,20.77
2017-04-11T02:01:49.781Z,20.77
2017-04-11T02:03:00.020Z,20.84
2017-04-11T02:04:10.252Z,20.74
2017-04-11T02:05:19.854Z,20.76
2017-04-11T02:06:29.770Z,20.76
2017-04-11T02:07:40.001Z,20.82
2017-04-11T02:08:50.223Z,20.79
2017-04-11T02:10:00.150Z,20.73
2017-04-11T02:11:10.437Z,20.76
2017-04-11T02:12:20.357Z,20.85
2017-04-11T02:13:30.273Z,20.72
2017-04-11T02:14:40.500Z,20.79
2017-04-11T02:15:49.793Z,20.82
2017-04-11T02:16:59.709Z,20.76
2017-04-11T02:18:09.937Z,20.73
2017-04-11T02:19:19.857Z,20.76
2017-04-11T02:20:30.080Z,20.8
2017-04-11T02:21:40.324Z,20.77
2017-04-11T02:22:50.257Z,20.87
2017-04-11T02:24:00.502Z,20.74
2017-04-11T02:25:10.737Z,20.76
2017-04-11T02:26:20.657Z,20.79
2017-04-11T02:27:30.586Z,20.87
2017-04-11T02:28:40.204Z,20.85
2017-04-11T02:29:50.442Z,20.79
2017-04-11T02:31:00.365Z,20.67
2017-04-11T02:32:10.595Z,20.84
2017-04-11T02:33:20.517Z,20.76
2017-04-11T02:34:30.755Z,20.82
2017-04-11T02:35:40.671Z,20.79
2017-04-11T02:36:50.579Z,20.8
2017-04-11T02:38:00.812Z,20.88
2017-04-11T02:39:10.747Z,20.77
2017-04-11T02:40:20.982Z,20.82
2017-04-11T02:41:31.206Z,20.77
2017-04-11T02:42:41.127Z,20.76
2017-04-11T02:43:51.358Z,20.73
2017-04-11T02:45:01.578Z,20.8
2017-04-11T02:46:11.829Z,20.67
2017-04-11T02:47:22.057Z,20.76
2017-04-11T02:48:32.292Z,20.77
2017-04-11T02:49:42.204Z,20.87
2017-04-11T02:50:52.115Z,20.76
2017-04-11T02:52:02.031Z,20.77
2017-04-11T02:53:11.637Z,20.79
2017-04-11T02:54:21.557Z,20.66
2017-04-11T02:55:31.790Z,20.47
2017-04-11T02:56:41.710Z,20.51
2017-04-11T02:57:51.313Z,20.62
2017-04-11T02:59:01.549Z,20.66
2017-04-11T03:00:11.472Z,20.74
2017-04-11T03:01:21.384Z,20.72
2017-04-11T03:02:31.615Z,20.73
2017-04-11T03:03:41.541Z,20.58
2017-04-11T03:04:51.770Z,20.48
2017-04-11T03:06:01.696Z,20.48
2017-04-11T03:07:11.615Z,20.61
2017-04-11T03:08:21.838Z,20.62
2017-04-11T03:09:32.068Z,20.73
2017-04-11T03:10:41.984Z,20.77
2017-04-11T03:11:51.902Z,20.76
2017-04-11T03:13:01.819Z,20.84
2017-04-11T03:14:12.061Z,20.77
2017-04-11T03:15:22.328Z,20.76
2017-04-11T03:16:32.564Z,20.77
2017-04-11T03:17:42.162Z,20.76
2017-04-11T03:18:52.391Z,20.72
2017-04-11T03:20:02.307Z,20.79
2017-04-11T03:21:12.218Z,20.74
2017-04-11T03:22:22.143Z,20.79
2017-04-11T03:23:32.075Z,20.73
2017-04-11T03:24:42.312Z,20.77
2017-04-11T03:25:52.548Z,20.85
2017-04-11T03:27:02.162Z,20.76
2017-04-11T03:28:12.077Z,20.74
2017-04-11T03:29:21.996Z,20.77
2017-04-11T03:30:32.225Z,20.76
2017-04-11T03:31:42.457Z,20.79
2017-04-11T03:32:52.375Z,20.74
2017-04-11T03:34:02.604Z,20.85
2017-04-11T03:35:12.527Z,20.79
2017-04-11T03:36:22.442Z,20.79
2017-04-11T03:39:13.155Z,20.8
2017-04-11T03:40:23.385Z,20.76
2017-04-11T03:41:32.675Z,20.82
2017-04-11T03:42:42.591Z,20.82
2017-04-11T03:43:52.820Z,20.77
2017-04-11T03:45:02.735Z,20.84
2017-04-11T03:46:12.965Z,20.77
2017-04-11T03:47:23.190Z,20.77
2017-04-11T03:48:33.411Z,20.79
2017-04-11T03:49:43.330Z,20.87
2017-04-11T03:50:53.548Z,20.8
2017-04-11T03:52:03.770Z,20.79
2017-04-11T03:53:13.993Z,20.74
2017-04-11T03:54:24.222Z,20.79
2017-04-11T03:55:34.453Z,20.77
2017-04-11T03:56:44.368Z,20.8
2017-04-11T03:57:54.280Z,20.73
2017-04-11T03:59:04.189Z,20.7
2017-04-11T04:00:14.098Z,20.77
2017-04-11T04:01:23.693Z,20.82
2017-04-11T04:02:33.916Z,20.84
2017-04-11T04:03:44.145Z,20.76
2017-04-11T04:04:54.390Z,20.8
2017-04-11T04:06:04.305Z,20.77
2017-04-11T04:07:14.539Z,20.82
2017-04-11T04:08:24.771Z,20.76
2017-04-11T04:09:34.694Z,20.73
2017-04-11T04:10:44.620Z,20.72
2017-04-11T04:11:54.842Z,20.74
2017-04-11T04:13:05.071Z,20.73
2017-04-11T04:14:14.677Z,20.72
2017-04-11T04:15:24.902Z,20.72
2017-04-11T04:16:35.127Z,20.76
2017-04-11T04:17:45.370Z,20.76
2017-04-11T04:18:54.972Z,20.76
2017-04-11T04:20:05.197Z,20.74
2017-04-11T04:21:14.793Z,20.67
2017-04-11T04:22:25.025Z,20.67
2017-04-11T04:23:35.261Z,20.72
2017-04-11T04:24:45.484Z,20.67
2017-04-11T04:25:55.704Z,20.74
2017-04-11T04:27:05.934Z,20.59
2017-04-11T04:28:16.167Z,20.58
2017-04-11T04:29:26.074Z,20.66
2017-04-11T04:30:35.987Z,20.61
2017-04-11T04:31:45.898Z,20.66
2017-04-11T04:32:55.808Z,20.61
2017-04-11T04:34:06.028Z,20.62
2017-04-11T04:35:16.269Z,20.61
2017-04-11T04:36:26.496Z,20.62
2017-04-11T04:37:36.738Z,20.61
2017-04-11T04:38:46.646Z,20.61
2017-04-11T04:39:56.240Z,20.64
2017-04-11T04:41:05.529Z,20.59
2017-04-11T04:42:15.753Z,20.57
2017-04-11T04:43:25.664Z,20.57
2017-04-11T04:44:35.886Z,20.57
2017-04-11T04:45:46.112Z,20.61
2017-04-11T04:46:56.343Z,20.58
2017-04-11T04:48:06.250Z,20.58
2017-04-11T04:49:16.162Z,20.59
2017-04-11T04:50:26.380Z,20.57
2017-04-11T04:51:36.611Z,20.54
2017-04-11T04:52:46.832Z,20.52
2017-04-11T04:53:57.061Z,20.41
2017-04-11T04:55:07.284Z,20.47
2017-04-11T04:56:17.508Z,20.43
2017-04-11T04:57:27.732Z,20.39
2017-04-11T04:58:37.641Z,20.36
2017-04-11T04:59:47.287Z,20.38
2017-04-11T05:00:57.522Z,20.35
2017-04-11T05:02:07.750Z,20.39
2017-04-11T05:03:17.666Z,20.39
2017-04-11T05:04:27.584Z,20.38
2017-04-11T05:05:37.813Z,20.47
2017-04-11T05:06:48.039Z,20.43
2017-04-11T05:07:57.648Z,20.38
2017-04-11T05:09:07.572Z,20.36
2017-04-11T05:10:16.859Z,20.41
2017-04-11T05:11:26.459Z,20.51
2017-04-11T05:12:36.683Z,20.39
2017-04-11T05:13:46.906Z,20.42
2017-04-11T05:14:57.125Z,20.39
2017-04-11T05:16:07.353Z,20.42
2017-04-11T05:17:16.963Z,20.48
2017-04-11T05:18:27.191Z,20.42
2017-04-11T05:19:37.122Z,20.47
2017-04-11T05:20:47.346Z,20.41
2017-04-11T05:21:57.253Z,20.41
2017-04-11T05:23:07.162Z,20.38
2017-04-11T05:24:16.454Z,20.36
2017-04-11T05:25:26.370Z,20.41
2017-04-11T05:26:36.285Z,20.35
2017-04-11T05:27:46.196Z,20.38
2017-04-11T05:28:56.110Z,20.38
2017-04-11T05:30:06.036Z,20.38
2017-04-11T05:31:16.263Z,20.31
2017-04-11T05:32:26.491Z,20.33
2017-04-11T05:33:36.718Z,20.38
2017-04-11T05:34:46.629Z,20.35
2017-04-11T05:35:56.549Z,20.29
2017-04-11T05:37:06.466Z,20.32
2017-04-11T05:38:16.385Z,20.32
2017-04-11T05:39:25.982Z,20.41
2017-04-11T05:40:35.891Z,20.32
2017-04-11T05:41:46.164Z,20.32
2017-04-11T05:42:56.389Z,20.28
2017-04-11T05:44:06.618Z,20.33
2017-04-11T05:45:16.841Z,20.36
2017-04-11T05:46:27.066Z,20.32
2017-04-11T05:47:37.286Z,20.35
2017-04-11T05:48:47.207Z,20.36
2017-04-11T05:49:57.117Z,20.32
2017-04-11T05:51:07.032Z,20.32
2017-04-11T05:52:16.322Z,20.33
2017-04-11T05:53:26.549Z,20.32
2017-04-11T05:54:36.481Z,20.32
2017-04-11T05:55:46.729Z,20.35
2017-04-11T05:56:56.947Z,20.29
2017-04-11T05:58:06.863Z,20.32
2017-04-11T05:59:17.089Z,20.39
2017-04-11T06:00:26.692Z,20.35
2017-04-11T06:01:36.917Z,20.32
2017-04-11T06:02:46.827Z,20.28
2017-04-11T06:03:57.051Z,20.32
2017-04-11T06:05:07.288Z,20.36
2017-04-11T06:06:17.519Z,20.48
2017-04-11T06:07:27.434Z,20.48
2017-04-11T06:08:37.345Z,20.42
2017-04-11T06:09:47.571Z,20.5
2017-04-11T06:10:57.799Z,20.57
2017-04-11T06:12:08.024Z,20.47
2017-04-11T06:13:17.620Z,20.58
2017-04-11T06:14:27.869Z,20.54
2017-04-11T06:15:38.095Z,20.61
2017-04-11T06:16:48.323Z,20.59
2017-04-11T06:17:58.231Z,20.62
2017-04-11T06:19:08.467Z,20.61
2017-04-11T06:20:18.692Z,20.61
2017-04-11T06:21:28.917Z,20.59
2017-04-11T06:22:39.143Z,20.66
2017-04-11T06:23:49.360Z,20.61
2017-04-11T06:24:59.598Z,20.61
2017-04-11T06:26:09.512Z,20.66
2017-04-11T06:27:19.735Z,20.72
2017-04-11T06:28:30.002Z,20.73
2017-04-11T06:29:40.226Z,20.8
2017-04-11T06:30:50.139Z,20.76
2017-04-11T06:32:00.374Z,20.74
2017-04-11T06:33:10.287Z,20.84
2017-04-11T06:34:20.202Z,20.74
2017-04-11T06:35:29.802Z,20.79
2017-04-11T06:36:40.032Z,20.76
2017-04-11T06:37:49.658Z,20.76
2017-04-11T06:38:59.568Z,20.79
2017-04-11T06:40:09.476Z,20.77
2017-04-11T06:41:19.401Z,20.76
2017-04-11T06:42:29.629Z,20.79
2017-04-11T06:43:39.861Z,20.77
2017-04-11T06:44:50.086Z,20.76
2017-04-11T06:45:59.686Z,20.74
2017-04-11T06:47:09.916Z,20.74
2017-04-11T06:48:19.520Z,20.77
2017-04-11T06:49:29.436Z,20.74
2017-04-11T06:50:39.353Z,20.76
2017-04-11T06:51:49.266Z,20.77
2017-04-11T06:52:59.498Z,20.79
2017-04-11T06:54:09.723Z,20.77
2017-04-11T06:55:19.682Z,20.8
2017-04-11T06:56:29.910Z,20.67
2017-04-11T06:57:39.841Z,20.79
2017-04-11T06:58:50.070Z,20.76
2017-04-11T07:00:00.293Z,20.76
2017-04-11T07:01:10.522Z,20.84
2017-04-11T07:02:20.436Z,20.8
2017-04-11T07:03:30.049Z,20.77
2017-04-11T07:04:39.962Z,20.76
2017-04-11T07:05:50.194Z,20.77
2017-04-11T07:06:59.805Z,20.77
2017-04-11T07:08:09.403Z,20.76
2017-04-11T07:09:18.699Z,20.74
2017-04-11T07:10:28.923Z,20.77
2017-04-11T07:11:39.151Z,20.79
2017-04-11T07:12:49.404Z,20.74
2017-04-11T07:13:59.318Z,20.76
2017-04-11T07:15:09.232Z,20.77
2017-04-11T07:16:19.137Z,20.76
2017-04-11T07:17:28.730Z,20.79
2017-04-11T07:18:38.959Z,20.76
2017-04-11T07:19:48.871Z,20.82
2017-04-11T07:20:58.789Z,20.7
2017-04-11T07:22:09.018Z,20.8
2017-04-11T07:23:18.933Z,20.66
2017-04-11T07:24:28.847Z,20.64
2017-04-11T07:25:38.759Z,20.77
2017-04-11T07:26:48.979Z,20.74
2017-04-11T07:27:59.204Z,20.8
2017-04-11T07:29:09.117Z,20.91
2017-04-11T07:30:19.345Z,20.76
2017-04-11T07:31:29.617Z,20.77
2017-04-11T07:32:39.844Z,20.76
2017-04-11T07:33:49.437Z,20.8
2017-04-11T07:34:59.654Z,20.79
2017-04-11T07:36:09.572Z,20.73
2017-04-11T07:37:19.489Z,20.89
2017-04-11T07:38:29.401Z,20.82
2017-04-11T07:39:39.307Z,20.74
2017-04-11T07:40:49.220Z,20.76
2017-04-11T07:41:59.131Z,20.7
2017-04-11T07:43:09.046Z,20.74
2017-04-11T07:44:18.961Z,20.77
2017-04-11T07:45:28.567Z,20.74
2017-04-11T07:46:38.797Z,20.79
2017-04-11T07:47:48.397Z,20.74
2017-04-11T07:48:58.324Z,20.79
2017-04-11T07:50:08.237Z,20.74
2017-04-11T07:51:18.458Z,20.72
2017-04-11T07:52:28.686Z,20.73
2017-04-11T07:53:38.911Z,20.77
2017-04-11T07:54:48.515Z,20.76
2017-04-11T07:55:58.733Z,20.84
2017-04-11T07:57:08.657Z,20.79
2017-04-11T07:58:18.889Z,20.74
2017-04-11T07:59:29.109Z,20.67
2017-04-11T08:00:39.024Z,20.84
2017-04-11T08:01:49.252Z,20.8
2017-04-11T08:02:59.166Z,20.79
2017-04-11T08:04:09.395Z,20.73
2017-04-11T08:05:19.676Z,20.73
2017-04-11T08:06:29.601Z,20.89
2017-04-11T08:07:39.518Z,20.74
2017-04-11T08:08:49.740Z,20.76
2017-04-11T08:09:59.648Z,20.8
2017-04-11T08:11:09.902Z,20.74
2017-04-11T08:12:19.823Z,20.79
2017-04-11T08:13:29.741Z,20.73
2017-04-11T08:14:39.973Z,20.72
2017-04-11T08:15:50.210Z,20.73
2017-04-11T08:17:00.432Z,20.76
2017-04-11T08:18:10.032Z,20.7
2017-04-11T08:19:19.321Z,20.76
2017-04-11T08:20:29.544Z,20.72
2017-04-11T08:21:39.774Z,20.76
2017-04-11T08:22:49.998Z,20.82
2017-04-11T08:23:59.909Z,20.73
2017-04-11T08:25:09.829Z,20.76
2017-04-11T08:26:19.751Z,20.74
2017-04-11T08:27:29.662Z,20.76
2017-04-11T08:28:39.583Z,20.74
2017-04-11T08:29:49.199Z,20.74
2017-04-11T08:30:59.117Z,20.79
2017-04-11T08:32:09.341Z,20.74
2017-04-11T08:33:19.257Z,20.8
2017-04-11T08:34:29.170Z,20.74
2017-04-11T08:35:39.100Z,20.74
2017-04-11T08:36:49.011Z,20.76
2017-04-11T08:37:58.921Z,20.74
2017-04-11T08:39:09.380Z,20.8
2017-04-11T08:40:19.845Z,20.8
2017-04-11T08:41:30.066Z,20.74
2017-04-11T08:42:39.680Z,20.79
2017-04-11T08:43:49.286Z,20.74
2017-04-11T08:44:59.517Z,20.79
2017-04-11T08:46:09.429Z,20.74
2017-04-11T08:47:19.038Z,20.8
2017-04-11T08:48:28.659Z,20.77
2017-04-11T08:49:38.577Z,20.8
2017-04-11T08:50:48.179Z,20.84
2017-04-11T08:51:58.095Z,20.76
2017-04-11T08:53:08.015Z,20.82
2017-04-11T08:54:17.928Z,20.84
2017-04-11T08:55:28.151Z,20.8
2017-04-11T08:56:38.393Z,20.88
2017-04-11T08:57:48.627Z,20.77
2017-04-11T08:58:58.854Z,20.84
2017-04-11T09:00:08.491Z,20.77
2017-04-11T09:01:18.401Z,20.87
2017-04-11T09:02:28.309Z,20.89
2017-04-11T09:03:38.547Z,20.79
2017-04-11T09:04:48.773Z,20.89
2017-04-11T09:05:58.691Z,20.88
2017-04-11T09:07:08.293Z,20.89
2017-04-11T09:08:18.210Z,20.94
2017-04-11T09:09:28.436Z,20.89
2017-04-11T09:10:38.359Z,20.87
2017-04-11T09:11:48.596Z,20.8
2017-04-11T09:12:58.818Z,20.8
2017-04-11T09:14:09.042Z,20.79
2017-04-11T09:15:18.958Z,20.92
2017-04-11T09:16:29.182Z,20.88
2017-04-11T09:17:39.094Z,20.91
2017-04-11T09:18:48.699Z,20.89
2017-04-11T09:19:58.922Z,20.87
2017-04-11T09:21:09.150Z,20.89
2017-04-11T09:22:19.369Z,20.87
2017-04-11T09:23:29.599Z,20.91
2017-04-11T09:24:39.514Z,20.88
2017-04-11T09:25:49.434Z,20.92
2017-04-11T09:26:59.657Z,20.97
2017-04-11T09:28:09.570Z,20.89
2017-04-11T09:29:19.482Z,20.89
2017-04-11T09:30:29.709Z,20.89
2017-04-11T09:31:39.624Z,20.89
2017-04-11T09:32:49.544Z,20.95
2017-04-11T09:33:59.771Z,20.91
2017-04-11T09:35:09.697Z,20.89
2017-04-11T09:36:19.945Z,20.88
2017-04-11T09:37:29.866Z,20.92
2017-04-11T09:38:39.462Z,20.84
2017-04-11T09:39:49.386Z,20.91
2017-04-11T09:40:59.620Z,20.88
2017-04-11T09:42:09.539Z,20.88
2017-04-11T09:43:19.762Z,20.91
2017-04-11T09:44:29.364Z,20.94
2017-04-11T09:45:38.650Z,20.88
2017-04-11T09:46:48.873Z,20.82
2017-04-11T09:47:58.781Z,20.87
2017-04-11T09:49:09.012Z,20.94
2017-04-11T09:50:18.936Z,20.87
2017-04-11T09:51:28.540Z,20.85
2017-04-11T09:52:38.452Z,20.8
2017-04-11T09:53:48.058Z,20.84
2017-04-11T09:54:57.990Z,20.84
2017-04-11T09:56:07.593Z,20.85
2017-04-11T09:57:17.513Z,20.88
2017-04-11T09:58:27.134Z,20.8
2017-04-11T09:59:36.415Z,20.79
2017-04-11T10:00:46.324Z,20.79
2017-04-11T10:01:55.926Z,20.88
2017-04-11T10:03:05.534Z,20.89
2017-04-11T10:04:15.135Z,20.91
2017-04-11T10:05:25.366Z,20.87
2017-04-11T10:06:34.968Z,20.84
2017-04-11T10:07:44.884Z,20.92
2017-04-11T10:08:55.117Z,20.88
2017-04-11T10:10:04.719Z,20.94
2017-04-11T10:11:14.633Z,20.91
2017-04-11T10:12:24.235Z,20.8
2017-04-11T10:13:34.475Z,20.94
2017-04-11T10:14:44.078Z,20.91
2017-04-11T10:15:53.680Z,20.91
2017-04-11T10:17:03.283Z,20.91
2017-04-11T10:18:13.504Z,20.92
2017-04-11T10:19:23.104Z,20.88
2017-04-11T10:20:32.711Z,20.89
2017-04-11T10:21:42.940Z,20.91
2017-04-11T10:22:53.174Z,20.88
2017-04-11T10:24:03.087Z,20.92
2017-04-11T10:25:13.014Z,20.94
2017-04-11T10:26:22.608Z,20.89
2017-04-11T10:27:32.837Z,20.94
2017-04-11T10:28:43.062Z,20.89
2017-04-11T10:29:52.984Z,20.89
2017-04-11T10:31:02.907Z,20.91
2017-04-11T10:32:12.191Z,20.92
2017-04-11T10:33:22.108Z,20.89
2017-04-11T10:34:32.340Z,20.92
2017-04-11T10:35:41.944Z,20.89
2017-04-11T10:36:52.167Z,20.94
2017-04-11T10:38:01.807Z,20.91
2017-04-11T10:39:11.417Z,20.94
2017-04-11T10:40:21.337Z,20.88
2017-04-11T10:41:31.255Z,20.87
2017-04-11T10:42:40.544Z,20.91
2017-04-11T10:43:50.148Z,20.91
2017-04-11T10:44:59.749Z,20.94
2017-04-11T10:46:09.357Z,20.92
2017-04-11T10:47:19.319Z,20.89
2017-04-11T10:48:29.557Z,20.88
2017-04-11T10:49:39.486Z,20.89
2017-04-11T10:50:49.084Z,20.91
2017-04-11T10:51:58.685Z,20.87
2017-04-11T10:53:08.606Z,20.92
2017-04-11T10:54:18.834Z,20.88
2017-04-11T10:55:29.063Z,20.92
2017-04-11T10:56:38.980Z,20.92
2017-04-11T10:57:48.886Z,20.85
2017-04-11T10:58:58.799Z,20.89
2017-04-11T11:00:08.705Z,20.91
2017-04-11T11:01:18.616Z,20.88
2017-04-11T11:02:28.221Z,20.92
2017-04-11T11:03:38.444Z,20.91
2017-04-11T11:04:48.360Z,20.94
2017-04-11T11:05:58.581Z,20.89
2017-04-11T11:07:08.186Z,20.89
2017-04-11T11:08:18.413Z,20.92
2017-04-11T11:09:28.326Z,20.84
2017-04-11T11:10:38.239Z,20.98
2017-04-11T11:11:48.154Z,20.88
2017-04-11T11:12:57.759Z,20.92
2017-04-11T11:14:07.366Z,20.88
2017-04-11T11:15:16.970Z,20.91
2017-04-11T11:16:26.885Z,20.88
2017-04-11T11:17:36.497Z,20.92
2017-04-11T11:18:46.719Z,20.87
2017-04-11T11:19:56.323Z,20.92
2017-04-11T11:21:06.612Z,20.91
2017-04-11T11:22:16.540Z,20.92
2017-04-11T11:23:25.827Z,20.89
2017-04-11T11:24:35.746Z,20.87
2017-04-11T11:25:46.000Z,20.91
2017-04-11T11:26:55.911Z,20.95
2017-04-11T11:28:06.130Z,20.94
2017-04-11T11:29:15.736Z,20.85
2017-04-11T11:30:25.967Z,20.97
2017-04-11T11:31:35.881Z,20.98
2017-04-11T11:32:46.105Z,20.85
2017-04-11T11:33:56.330Z,20.89
2017-04-11T11:35:06.568Z,20.89
2017-04-11T11:36:16.478Z,20.89
2017-04-11T11:37:26.395Z,20.89
2017-04-11T11:38:36.617Z,20.88
2017-04-11T11:39:46.531Z,20.94
2017-04-11T11:40:56.445Z,20.94
2017-04-11T11:42:05.728Z,20.82
2017-04-11T11:43:15.641Z,20.91
2017-04-11T11:44:25.564Z,20.95
2017-04-11T11:45:35.798Z,20.89
2017-04-11T11:46:45.398Z,20.97
2017-04-11T11:47:55.059Z,20.97
2017-04-11T11:49:04.973Z,20.91
2017-04-11T11:50:14.579Z,20.87
2017-04-11T11:51:24.179Z,20.91
2017-04-11T11:52:34.399Z,20.98
2017-04-11T11:53:44.853Z,20.8
2017-04-11T11:54:54.779Z,20.76
2017-04-11T11:56:05.004Z,20.74
2017-04-11T11:57:14.613Z,20.74
2017-04-11T11:58:23.899Z,20.92
2017-04-11T11:59:33.818Z,20.91
2017-04-11T12:00:44.045Z,20.94
2017-04-11T12:01:53.657Z,20.98
2017-04-11T12:03:03.578Z,20.97
2017-04-11T12:04:13.179Z,20.98
2017-04-11T12:05:23.116Z,20.92
2017-04-11T12:06:33.346Z,20.98
2017-04-11T12:07:43.582Z,20.94
2017-04-11T12:08:53.503Z,20.91
2017-04-11T12:10:03.737Z,20.99
2017-04-11T12:11:13.652Z,20.99
2017-04-11T12:12:23.563Z,20.95
2017-04-11T12:13:33.170Z,20.95
2017-04-11T12:14:43.408Z,20.92
2017-04-11T12:15:52.693Z,21.01
2017-04-11T12:17:02.635Z,20.97
2017-04-11T12:18:12.554Z,20.97
2017-04-11T12:19:21.849Z,21.06
2017-04-11T12:20:31.797Z,21.06
2017-04-11T12:21:41.710Z,21.07
2017-04-11T12:22:51.935Z,21.1
2017-04-11T12:24:01.540Z,21.14
2017-04-11T12:25:11.453Z,21.07
2017-04-11T12:26:21.680Z,21.12
2017-04-11T12:27:31.291Z,21.12
2017-04-11T12:28:41.207Z,21.12
2017-04-11T12:29:50.808Z,21.07
2017-04-11T12:31:00.726Z,21.03
2017-04-11T12:32:10.658Z,21.07
2017-04-11T12:33:20.262Z,21.09
2017-04-11T12:34:30.177Z,21.1
2017-04-11T12:35:39.786Z,21.07
2017-04-11T12:36:49.697Z,21.04
2017-04-11T12:37:59.619Z,21.06
2017-04-11T12:39:09.230Z,21.13
2017-04-11T12:40:19.455Z,21.09
2017-04-11T12:41:29.688Z,21.16
2017-04-11T12:42:39.917Z,21.13
2017-04-11T12:43:49.835Z,21.1
2017-04-11T12:45:00.059Z,21.07
2017-04-11T12:46:10.562Z,21.06
2017-04-11T12:47:20.168Z,21.1
2017-04-11T12:48:30.388Z,21.09
2017-04-11T12:49:40.304Z,21.1
2017-04-11T12:50:50.214Z,21.1
2017-04-11T12:52:00.440Z,21.09
2017-04-11T12:53:10.359Z,21.09
2017-04-11T12:54:19.962Z,21.09
2017-04-11T12:55:29.883Z,21.06
2017-04-11T12:56:39.795Z,21.06
2017-04-11T12:57:49.395Z,21.09
2017-04-11T12:58:59.305Z,21.03
2017-04-11T13:00:08.917Z,21.07
2017-04-11T13:01:18.233Z,21.13
2017-04-11T13:02:28.146Z,21.07
2017-04-11T13:03:38.059Z,21.09
2017-04-11T13:04:47.984Z,21.12
2017-04-11T13:05:57.939Z,21.12
2017-04-11T13:07:07.851Z,21.1
2017-04-11T13:08:18.072Z,21.06
2017-04-11T13:09:28.305Z,21.09
2017-04-11T13:10:38.534Z,21.1
2017-04-11T13:11:48.761Z,21.1
2017-04-11T13:12:58.681Z,21.1
2017-04-11T13:14:08.907Z,21.1
2017-04-11T13:15:18.815Z,21.12
2017-04-11T13:16:28.418Z,21.09
2017-04-11T13:17:38.651Z,21.06
2017-04-11T13:18:48.884Z,21.07
2017-04-11T13:19:59.106Z,21.09
2017-04-11T13:21:09.020Z,21.06
2017-04-11T13:22:18.946Z,21.1
2017-04-11T13:23:28.859Z,21.04
2017-04-11T13:24:39.101Z,21.06
2017-04-11T13:25:49.328Z,21.09
2017-04-11T13:26:59.241Z,21.09
2017-04-11T13:28:09.465Z,21.09
2017-04-11T13:29:19.699Z,21.14
2017-04-11T13:30:29.297Z,21.06
2017-04-11T13:31:38.898Z,21.14
2017-04-11T13:32:49.133Z,21.16
2017-04-11T13:33:59.049Z,21.12
2017-04-11T13:35:08.964Z,21.06
2017-04-11T13:36:19.193Z,21.13
2017-04-11T13:37:29.110Z,21.09
2017-04-11T13:38:39.049Z,21.14
2017-04-11T13:39:49.285Z,21.09
2017-04-11T13:40:59.504Z,21.1
2017-04-11T13:42:09.108Z,21.14
2017-04-11T13:43:19.329Z,21.14
2017-04-11T13:44:29.236Z,21.04
2017-04-11T13:45:38.836Z,21.13
2017-04-11T13:46:49.068Z,21.17
2017-04-11T13:47:58.976Z,21.16
2017-04-11T13:49:08.590Z,21.13
2017-04-11T13:50:18.507Z,21.14
2017-04-11T13:51:28.730Z,21.14
2017-04-11T13:52:38.340Z,21.21
2017-04-11T13:53:48.254Z,21.19
2017-04-11T13:54:58.168Z,21.21
2017-04-11T13:56:07.763Z,21.14
2017-04-11T13:57:17.371Z,21.21
2017-04-11T13:58:26.975Z,21.24
2017-04-11T13:59:36.576Z,21.19
2017-04-11T14:00:46.494Z,21.24
2017-04-11T14:01:56.719Z,21.13
2017-04-11T14:03:06.944Z,21.22
2017-04-11T14:04:17.180Z,21.17
2017-04-11T14:05:26.474Z,21.17
2017-04-11T14:06:36.389Z,21.24
2017-04-11T14:07:46.307Z,21.19
2017-04-11T14:08:56.216Z,21.27
2017-04-11T14:10:06.148Z,21.25
2017-04-11T14:11:16.119Z,21.27
2017-04-11T14:12:26.049Z,21.25
2017-04-11T14:13:35.976Z,21.28
2017-04-11T14:14:45.888Z,21.25
2017-04-11T14:15:56.120Z,21.16
2017-04-11T14:17:06.355Z,21.27
2017-04-11T14:18:16.303Z,21.24
2017-04-11T14:19:26.222Z,21.27
2017-04-11T14:20:36.446Z,21.24
2017-04-11T14:21:46.671Z,21.22
2017-04-11T14:22:56.584Z,21.25
2017-04-11T14:24:06.495Z,21.14
2017-04-11T14:25:16.409Z,21.21
2017-04-11T14:26:26.320Z,21.25
2017-04-11T14:27:36.556Z,21.22
2017-04-11T14:28:46.467Z,21.24
2017-04-11T14:29:56.069Z,21.22
2017-04-11T14:31:05.673Z,21.28
2017-04-11T14:32:15.593Z,21.27
2017-04-11T14:33:25.515Z,21.25
2017-04-11T14:34:35.435Z,21.24
2017-04-11T14:35:45.664Z,21.24
2017-04-11T14:36:55.574Z,21.35
2017-04-11T14:38:05.486Z,21.24
2017-04-11T14:39:15.406Z,21.28
2017-04-11T14:40:25.320Z,21.25
2017-04-11T14:41:35.235Z,21.21
2017-04-11T14:42:45.461Z,21.25
2017-04-11T14:43:55.688Z,21.29
2017-04-11T14:45:05.604Z,21.24
2017-04-11T14:46:15.834Z,21.25
2017-04-11T14:47:26.052Z,21.22
2017-04-11T14:48:36.281Z,21.27
2017-04-11T14:49:46.521Z,21.31
2017-04-11T14:50:56.433Z,21.25
2017-04-11T14:52:06.673Z,21.31
2017-04-11T14:53:16.587Z,21.28
2017-04-11T14:54:26.504Z,21.28
2017-04-11T14:55:36.736Z,21.21
2017-04-11T14:56:46.652Z,21.24
2017-04-11T14:57:56.880Z,21.24
2017-04-11T14:59:07.114Z,21.27
2017-04-11T15:00:17.342Z,21.27
2017-04-11T15:01:27.274Z,21.28
2017-04-11T15:02:37.500Z,21.24
2017-04-11T15:03:47.109Z,21.22
2017-04-11T15:04:57.382Z,21.27